Asian Breeze — 9VYM — position and weather

sailwx.info

Track history (hours):
 
Tides and Currents Weather Stations Pressure Air Temp Water Temp Dewpoint Dewpoint Depression Visibility Wind Speed Wind Dir Waves Ship Positions

Asian Breeze

Last reported at 2018-Feb-17 20:00 UTC. Time now 2018-Feb-17 20:13 UTC.
Position N 53°54' E 008°42'.

Length 164 m; draft 6.6 m.

Type: Cargo ship. MMSI: 564994000.

Date/timePositionNaut miles runAvg speedWind from/ knotsBaromVisibWave heightAir tempDewpointWater temp
2018-Feb-17 20:00N 53°54' E 008°42'3 6.3
2018-Feb-17 19:30N 53°56' E 008°39'510.3
2018-Feb-17 19:00N 53°58' E 008°31'510.7
2018-Feb-17 18:30N 53°59' E 008°22'5612.0
2018-Feb-17 13:48N 54°34' E 007°06'816.3
2018-Feb-17 13:19N 54°41' E 007°00'516.3
2018-Feb-17 13:00N 54°46' E 006°57'2 3.8
2018-Feb-17 12:30N 54°44' E 006°57'4 4.7
2018-Feb-17 11:45N 54°41' E 007°01'416.7
2018-Feb-17 11:31N 54°45' E 006°58'916.8
2018-Feb-17 11:00N 54°52' E 006°51'816.8
2018-Feb-17 10:30N 55°00' E 006°47'817.0
2018-Feb-17 10:00N 55°09' E 006°44'816.8
2018-Feb-17 09:30N 55°17' E 006°42'816.8
2018-Feb-17 09:00N 55°25' E 006°45'816.6
2018-Feb-17 08:30N 55°33' E 006°48'816.5
2018-Feb-17 08:00N 55°41' E 006°52'816.4
2018-Feb-17 07:30N 55°49' E 006°58'16315.1
2018-Feb-16 20:41N 57°48' E 010°21'315.7
2018-Feb-16 20:30N 57°49' E 010°26'815.0
2018-Feb-16 20:00N 57°49' E 010°40'714.6
2018-Feb-16 19:30N 57°50' E 010°54'815.6
2018-Feb-16 19:00N 57°50' E 011°09'815.7
2018-Feb-16 18:30N 57°51' E 011°24'612.8
2018-Feb-16 18:00N 57°55' E 011°34'611.1
2018-Feb-16 17:30N 57°57' E 011°43'3 6.3
2018-Feb-16 17:00N 58°01' E 011°42'0 0.0
2018-Feb-16 16:30N 58°01' E 011°42'0 0.0
2018-Feb-16 16:00N 58°01' E 011°42'0 0.0
2018-Feb-16 15:30N 58°01' E 011°42'0 0.0
2018-Feb-16 15:00N 58°01' E 011°42'0 0.0
2018-Feb-16 14:30N 58°01' E 011°42'0 0.0
2018-Feb-16 14:00N 58°01' E 011°42'0 0.0
2018-Feb-16 13:30N 58°01' E 011°42'0 0.0
2018-Feb-16 12:57N 58°01' E 011°42'0 0.0
2018-Feb-16 12:27N 58°01' E 011°42'0 0.0
2018-Feb-16 12:00N 58°01' E 011°42'0 0.0
2018-Feb-16 11:30N 58°01' E 011°42'0 0.0
2018-Feb-16 11:00N 58°01' E 011°42'0 0.0
2018-Feb-16 10:30N 58°01' E 011°42'0 0.0
2018-Feb-16 10:00N 58°01' E 011°42'0 0.0
2018-Feb-16 09:27N 58°01' E 011°42'0 0.0
2018-Feb-16 09:00N 58°01' E 011°42'0 0.0
2018-Feb-16 08:27N 58°01' E 011°42'0 0.0
2018-Feb-16 08:00N 58°01' E 011°42'0 0.0
2018-Feb-16 07:30N 58°01' E 011°42'1 2.5
2018-Feb-16 07:00N 57°59' E 011°42'510.6
2018-Feb-16 06:30N 57°55' E 011°37'611.4
2018-Feb-16 06:00N 57°52' E 011°28'612.2
2018-Feb-16 05:30N 57°56' E 011°19'714.6
2018-Feb-16 05:00N 58°02' E 011°12'714.3
2018-Feb-16 04:30N 58°09' E 011°07'714.7
2018-Feb-16 04:00N 58°16' E 011°01'714.8
2018-Feb-16 03:30N 58°22' E 010°54'612.6
2018-Feb-16 03:00N 58°25' E 010°44'815.8
2018-Feb-16 02:30N 58°33' E 010°40'815.1
2018-Feb-16 02:00N 58°40' E 010°37'714.4
2018-Feb-16 01:30N 58°47' E 010°34'714.8
2018-Feb-16 01:00N 58°55' E 010°34'714.7
2018-Feb-16 00:30N 59°02' E 010°35'3 6.0
2018-Feb-16 00:00N 59°05' E 010°33'713.2
2018-Feb-15 23:30N 59°11' E 010°38'815.3
2018-Feb-15 23:00N 59°19' E 010°35'815.4
2018-Feb-15 22:30N 59°26' E 010°32'714.4
2018-Feb-15 22:00N 59°32' E 010°24'510.2
2018-Feb-15 21:30N 59°37' E 010°25'510.7
2018-Feb-15 21:00N 59°42' E 010°20'4 7.3
2018-Feb-15 20:30N 59°44' E 010°14'0 0.0
2018-Feb-15 19:59N 59°44' E 010°14'0 0.0
2018-Feb-15 19:30N 59°44' E 010°14'0 0.0
2018-Feb-15 19:00N 59°44' E 010°14'0 0.0
2018-Feb-15 18:30N 59°44' E 010°14'0 0.0
2018-Feb-15 18:00N 59°44' E 010°14'0 0.0
2018-Feb-15 17:30N 59°44' E 010°14'0 0.0
2018-Feb-15 17:00N 59°44' E 010°14'0 0.0
2018-Feb-15 16:30N 59°44' E 010°14'0 0.0
2018-Feb-15 16:00N 59°44' E 010°14'0 0.0
2018-Feb-15 15:30N 59°44' E 010°14'0 0.0
2018-Feb-15 15:00N 59°44' E 010°14'0 0.0
2018-Feb-15 14:30N 59°44' E 010°14'0 0.0
2018-Feb-15 14:00N 59°44' E 010°14'0 0.0
2018-Feb-15 13:30N 59°44' E 010°14'0 0.0
2018-Feb-15 13:00N 59°44' E 010°14'0 0.0
2018-Feb-15 12:30N 59°44' E 010°14'0 0.0
2018-Feb-15 12:00N 59°44' E 010°14'0 0.0
2018-Feb-15 11:30N 59°44' E 010°14'0 0.0
2018-Feb-15 11:00N 59°44' E 010°14'0 0.0
2018-Feb-15 10:30N 59°44' E 010°14'0 0.0
2018-Feb-15 10:00N 59°44' E 010°14'0 0.0
2018-Feb-15 09:30N 59°44' E 010°14'0 0.0
2018-Feb-15 09:00N 59°44' E 010°14'0 0.0
2018-Feb-15 08:30N 59°44' E 010°14'0 0.0
2018-Feb-15 08:00N 59°44' E 010°14'0 0.0
2018-Feb-15 07:30N 59°44' E 010°14'0 0.0
2018-Feb-15 07:00N 59°44' E 010°14'0 0.0
2018-Feb-15 06:30N 59°44' E 010°14'0 0.0
2018-Feb-15 06:00N 59°44' E 010°14'0 0.0
2018-Feb-15 05:30N 59°44' E 010°14'0 0.0
2018-Feb-15 05:00N 59°44' E 010°14'0 0.0
2018-Feb-15 04:30N 59°44' E 010°14'0 0.0
2018-Feb-15 04:00N 59°44' E 010°14'0 0.1
2018-Feb-15 03:30N 59°44' E 010°14'2 4.5
2018-Feb-15 03:00N 59°43' E 010°18'612.0
2018-Feb-15 02:29N 59°38' E 010°25'5 9.7
2018-Feb-15 02:01N 59°33' E 010°24'816.1
2018-Feb-15 01:31N 59°26' E 010°33'917.8
2018-Feb-15 01:00N 59°18' E 010°37'917.2
2018-Feb-15 00:30N 59°09' E 010°40'612.7
2018-Feb-15 00:00N 59°04' E 010°34'612.3
2018-Feb-14 23:31N 58°57' E 010°34'715.0
2018-Feb-14 23:01N 58°51' E 010°26'816.4
2018-Feb-14 22:31N 58°44' E 010°18'23316.4
2018-Feb-14 08:22N 55°22' E 006°45'616.0
2018-Feb-14 08:01N 55°17' E 006°43'815.8
2018-Feb-14 07:31N 55°09' E 006°44'815.8
2018-Feb-14 07:00N 55°01' E 006°46'815.5
2018-Feb-14 06:30N 54°54' E 006°52'815.6
2018-Feb-14 06:01N 54°47' E 006°58'6515.6
2018-Feb-14 01:50N 53°52' E 007°57'617.7
2018-Feb-14 01:30N 53°50' E 008°06'918.3
2018-Feb-14 01:00N 53°43' E 008°17'816.6
2018-Feb-14 00:30N 53°38' E 008°27'510.4
2018-Feb-14 00:00N 53°34' E 008°33'1 1.1
2018-Feb-13 23:31N 53°34' E 008°33'0 0.5
2018-Feb-13 23:00N 53°34' E 008°34'0 0.0
2018-Feb-13 22:30N 53°34' E 008°34'0 0.0
2018-Feb-13 22:00N 53°34' E 008°34'0 0.0
2018-Feb-13 21:30N 53°34' E 008°34'0 0.0
2018-Feb-13 21:00N 53°34' E 008°34'0 0.0
2018-Feb-13 20:30N 53°34' E 008°34'0 0.0
2018-Feb-13 20:00N 53°34' E 008°34'0 0.0
2018-Feb-13 19:30N 53°34' E 008°34'0 0.0
2018-Feb-13 19:00N 53°34' E 008°34'0 0.0
2018-Feb-13 18:30N 53°34' E 008°34'0 0.0
2018-Feb-13 18:00N 53°34' E 008°34'0 0.0
2018-Feb-13 17:30N 53°34' E 008°34'0 0.0
2018-Feb-13 17:00N 53°34' E 008°34'0 0.0
2018-Feb-13 16:30N 53°34' E 008°34'0 0.0
2018-Feb-13 16:00N 53°34' E 008°34'0 0.0
2018-Feb-13 15:30N 53°34' E 008°34'0 0.0
2018-Feb-13 15:00N 53°34' E 008°34'0 0.0
2018-Feb-13 14:27N 53°34' E 008°34'0 0.0
2018-Feb-13 14:00N 53°34' E 008°34'0 0.0
2018-Feb-13 13:30N 53°34' E 008°34'0 0.0
2018-Feb-13 13:00N 53°34' E 008°34'0 0.0
2018-Feb-13 12:30N 53°34' E 008°34'0 0.0
2018-Feb-13 11:59N 53°34' E 008°34'0 0.0
2018-Feb-13 11:26N 53°34' E 008°34'0 0.0
2018-Feb-13 10:59N 53°34' E 008°34'0 0.0
2018-Feb-13 10:29N 53°34' E 008°34'0 0.0
2018-Feb-13 09:59N 53°34' E 008°34'0 0.0
2018-Feb-13 09:29N 53°34' E 008°34'0 0.0
2018-Feb-13 08:59N 53°34' E 008°34'0 0.0
2018-Feb-13 08:29N 53°34' E 008°34'0 0.0
2018-Feb-13 07:59N 53°34' E 008°34'0 0.0
2018-Feb-13 07:29N 53°34' E 008°34'0 0.0
2018-Feb-13 06:59N 53°34' E 008°34'0 0.0
2018-Feb-13 06:29N 53°34' E 008°34'0 0.0
2018-Feb-13 05:59N 53°34' E 008°34'0 0.0
2018-Feb-13 05:29N 53°34' E 008°34'0 0.0
2018-Feb-13 04:59N 53°34' E 008°34'0 0.0
2018-Feb-13 04:29N 53°34' E 008°34'0 0.0
2018-Feb-13 03:59N 53°34' E 008°34'0 0.6
2018-Feb-13 03:30N 53°34' E 008°33'0 0.4
2018-Feb-13 03:00N 53°34' E 008°33'1 1.7
2018-Feb-13 02:30N 53°35' E 008°32'510.1
2018-Feb-13 02:00N 53°38' E 008°26'713.0
2018-Feb-13 01:30N 53°43' E 008°18'713.6
2018-Feb-13 01:00N 53°47' E 008°09'9315.3
2018-Feb-12 18:54N 53°36' E 005°32'716.9
2018-Feb-12 18:30N 53°34' E 005°22'816.9
2018-Feb-12 18:00N 53°30' E 005°08'816.9
2018-Feb-12 17:30N 53°28' E 004°55'3015.8
2018-Feb-12 15:36N 53°03' E 004°26'116.6
2018-Feb-12 15:31N 53°02' E 004°25'816.8
2018-Feb-12 15:01N 52°55' E 004°18'9016.4
2018-Feb-12 09:32N 51°47' E 002°41'315.2
2018-Feb-12 09:20N 51°44' E 002°41'614.4
2018-Feb-12 08:56N 51°38' E 002°43'614.8
2018-Feb-12 08:30N 51°32' E 002°44'714.4
2018-Feb-12 08:00N 51°25' E 002°44'611.1
2018-Feb-12 07:31N 51°22' E 002°52'815.1
2018-Feb-12 07:00N 51°22' E 003°04'611.2
2018-Feb-12 06:30N 51°21' E 003°13'1 1.0
2018-Feb-12 06:00N 51°20' E 003°13'0 0.0
2018-Feb-12 05:30N 51°20' E 003°13'1 2.8
2018-Feb-12 05:00N 51°19' E 003°13'0 0.0
2018-Feb-12 04:30N 51°19' E 003°13'0 0.0
2018-Feb-12 03:58N 51°19' E 003°13'0 0.0
2018-Feb-12 03:28N 51°19' E 003°13'0 0.0
2018-Feb-12 02:58N 51°19' E 003°13'0 0.0
2018-Feb-12 02:28N 51°19' E 003°13'0 0.0
2018-Feb-12 01:58N 51°19' E 003°13'0 0.0
2018-Feb-12 01:28N 51°19' E 003°13'0 0.0
2018-Feb-12 00:55N 51°19' E 003°13'0 0.0
2018-Feb-12 00:25N 51°19' E 003°13'0 0.0
2018-Feb-11 23:58N 51°19' E 003°13'0 0.0
2018-Feb-11 23:28N 51°19' E 003°13'0 0.0
2018-Feb-11 22:58N 51°19' E 003°13'0 0.0
2018-Feb-11 22:28N 51°19' E 003°13'0 0.0
2018-Feb-11 21:58N 51°19' E 003°13'0 0.0
2018-Feb-11 21:28N 51°19' E 003°13'0 0.0
2018-Feb-11 20:58N 51°19' E 003°13'0 0.0
2018-Feb-11 20:28N 51°19' E 003°13'0 0.0
2018-Feb-11 19:58N 51°19' E 003°13'0 0.0
2018-Feb-11 19:28N 51°19' E 003°13'0 0.0
2018-Feb-11 18:58N 51°19' E 003°13'0 0.0
2018-Feb-11 18:28N 51°19' E 003°13'0 0.0
2018-Feb-11 17:58N 51°19' E 003°13'0 0.0
2018-Feb-11 17:28N 51°19' E 003°13'0 0.0
2018-Feb-11 16:58N 51°19' E 003°13'0 0.0
2018-Feb-11 16:25N 51°19' E 003°13'0 0.0
2018-Feb-11 15:58N 51°19' E 003°13'0 0.0
2018-Feb-11 15:28N 51°19' E 003°13'0 0.0
2018-Feb-11 14:58N 51°19' E 003°13'0 0.0
2018-Feb-11 14:28N 51°19' E 003°13'0 0.0
2018-Feb-11 13:58N 51°19' E 003°13'0 0.0
2018-Feb-11 13:28N 51°19' E 003°13'0 0.0
2018-Feb-11 12:58N 51°19' E 003°13'0 0.0
2018-Feb-11 12:28N 51°19' E 003°13'0 0.0
2018-Feb-11 11:58N 51°19' E 003°13'0 0.0
2018-Feb-11 11:30N 51°19' E 003°13'1 2.0
2018-Feb-11 11:00N 51°20' E 003°13'0 0.7
2018-Feb-11 10:30N 51°20' E 003°13'0 0.3
2018-Feb-11 10:00N 51°20' E 003°13'4 7.8
2018-Feb-11 09:30N 51°23' E 003°09'815.7
2018-Feb-11 09:00N 51°22' E 002°57'815.2
2018-Feb-11 08:31N 51°22' E 002°44'714.2
2018-Feb-11 08:00N 51°22' E 002°33'613.0
2018-Feb-11 07:30N 51°20' E 002°23'510.9
2018-Feb-11 07:00N 51°17' E 002°15'611.4
2018-Feb-11 06:30N 51°15' E 002°07'612.6
2018-Feb-11 06:01N 51°12' E 001°59'713.8
2018-Feb-11 05:30N 51°09' E 001°49'714.9
2018-Feb-11 05:00N 51°04' E 001°39'816.6
2018-Feb-11 04:30N 50°58' E 001°30'815.8
2018-Feb-11 04:00N 50°50' E 001°26'816.0
2018-Feb-11 03:30N 50°43' E 001°23'4615.9
2018-Feb-11 00:37N 50°21' E 000°20'216.1
2018-Feb-11 00:30N 50°20' E 000°17'815.9
2018-Feb-11 00:00N 50°18' E 000°05'815.5
2018-Feb-10 23:30N 50°16' W 000°07'3015.5
2018-Feb-10 21:33N 50°10' W 000°53'115.8
2018-Feb-10 21:30N 50°10' W 000°54'815.7
2018-Feb-10 21:00N 50°08' W 001°06'816.0
2018-Feb-10 20:31N 50°05' W 001°18'816.3
2018-Feb-10 20:01N 50°03' W 001°30'816.6
2018-Feb-10 19:30N 50°01' W 001°42'917.1
2018-Feb-10 19:01N 49°59' W 001°55'917.3
2018-Feb-10 18:30N 49°56' W 002°08'1317.5
2018-Feb-10 17:47N 49°53' W 002°27'617.5
2018-Feb-10 17:25N 49°51' W 002°37'717.4
2018-Feb-10 17:00N 49°49' W 002°48'917.2
2018-Feb-10 16:28N 49°46' W 003°01'817.3
2018-Feb-10 16:00N 49°42' W 003°12'10117.1
2018-Feb-10 10:03N 48°51' W 005°26'2516.2
2018-Feb-10 08:32N 48°31' W 005°49'  
Track history (hours):
 
Tides and Currents Weather Stations Pressure Air Temp Water Temp Dewpoint Dewpoint Depression Visibility Wind Speed Wind Dir Waves Ship Positions

Asian Breeze

Last reported at 2018-Feb-17 20:00 UTC. Time now 2018-Feb-17 20:13 UTC.
Position N 53°54' E 008°42'.

Length 164 m; draft 6.6 m.

Type: Cargo ship. MMSI: 564994000.

Date/timePositionNaut miles runAvg speedWind from/ knotsBaromVisibWave heightAir tempDewpointWater temp
2018-Feb-17 20:00N 53°54' E 008°42'3 6.3
2018-Feb-17 19:30N 53°56' E 008°39'510.3
2018-Feb-17 19:00N 53°58' E 008°31'510.7
2018-Feb-17 18:30N 53°59' E 008°22'5612.0
2018-Feb-17 13:48N 54°34' E 007°06'816.3
2018-Feb-17 13:19N 54°41' E 007°00'516.3
2018-Feb-17 13:00N 54°46' E 006°57'2 3.8
2018-Feb-17 12:30N 54°44' E 006°57'4 4.7
2018-Feb-17 11:45N 54°41' E 007°01'416.7
2018-Feb-17 11:31N 54°45' E 006°58'916.8
2018-Feb-17 11:00N 54°52' E 006°51'816.8
2018-Feb-17 10:30N 55°00' E 006°47'817.0
2018-Feb-17 10:00N 55°09' E 006°44'816.8
2018-Feb-17 09:30N 55°17' E 006°42'816.8
2018-Feb-17 09:00N 55°25' E 006°45'816.6
2018-Feb-17 08:30N 55°33' E 006°48'816.5
2018-Feb-17 08:00N 55°41' E 006°52'816.4
2018-Feb-17 07:30N 55°49' E 006°58'16315.1
2018-Feb-16 20:41N 57°48' E 010°21'315.7
2018-Feb-16 20:30N 57°49' E 010°26'815.0
2018-Feb-16 20:00N 57°49' E 010°40'714.6
2018-Feb-16 19:30N 57°50' E 010°54'815.6
2018-Feb-16 19:00N 57°50' E 011°09'815.7
2018-Feb-16 18:30N 57°51' E 011°24'612.8
2018-Feb-16 18:00N 57°55' E 011°34'611.1
2018-Feb-16 17:30N 57°57' E 011°43'3 6.3
2018-Feb-16 17:00N 58°01' E 011°42'0 0.0
2018-Feb-16 16:30N 58°01' E 011°42'0 0.0
2018-Feb-16 16:00N 58°01' E 011°42'0 0.0
2018-Feb-16 15:30N 58°01' E 011°42'0 0.0
2018-Feb-16 15:00N 58°01' E 011°42'0 0.0
2018-Feb-16 14:30N 58°01' E 011°42'0 0.0
2018-Feb-16 14:00N 58°01' E 011°42'0 0.0
2018-Feb-16 13:30N 58°01' E 011°42'0 0.0
2018-Feb-16 12:57N 58°01' E 011°42'0 0.0
2018-Feb-16 12:27N 58°01' E 011°42'0 0.0
2018-Feb-16 12:00N 58°01' E 011°42'0 0.0
2018-Feb-16 11:30N 58°01' E 011°42'0 0.0
2018-Feb-16 11:00N 58°01' E 011°42'0 0.0
2018-Feb-16 10:30N 58°01' E 011°42'0 0.0
2018-Feb-16 10:00N 58°01' E 011°42'0 0.0
2018-Feb-16 09:27N 58°01' E 011°42'0 0.0
2018-Feb-16 09:00N 58°01' E 011°42'0 0.0
2018-Feb-16 08:27N 58°01' E 011°42'0 0.0
2018-Feb-16 08:00N 58°01' E 011°42'0 0.0
2018-Feb-16 07:30N 58°01' E 011°42'1 2.5
2018-Feb-16 07:00N 57°59' E 011°42'510.6
2018-Feb-16 06:30N 57°55' E 011°37'611.4
2018-Feb-16 06:00N 57°52' E 011°28'612.2
2018-Feb-16 05:30N 57°56' E 011°19'714.6
2018-Feb-16 05:00N 58°02' E 011°12'714.3
2018-Feb-16 04:30N 58°09' E 011°07'714.7
2018-Feb-16 04:00N 58°16' E 011°01'714.8
2018-Feb-16 03:30N 58°22' E 010°54'612.6
2018-Feb-16 03:00N 58°25' E 010°44'815.8
2018-Feb-16 02:30N 58°33' E 010°40'815.1
2018-Feb-16 02:00N 58°40' E 010°37'714.4
2018-Feb-16 01:30N 58°47' E 010°34'714.8
2018-Feb-16 01:00N 58°55' E 010°34'714.7
2018-Feb-16 00:30N 59°02' E 010°35'3 6.0
2018-Feb-16 00:00N 59°05' E 010°33'713.2
2018-Feb-15 23:30N 59°11' E 010°38'815.3
2018-Feb-15 23:00N 59°19' E 010°35'815.4
2018-Feb-15 22:30N 59°26' E 010°32'714.4
2018-Feb-15 22:00N 59°32' E 010°24'510.2
2018-Feb-15 21:30N 59°37' E 010°25'510.7
2018-Feb-15 21:00N 59°42' E 010°20'4 7.3
2018-Feb-15 20:30N 59°44' E 010°14'0 0.0
2018-Feb-15 19:59N 59°44' E 010°14'0 0.0
2018-Feb-15 19:30N 59°44' E 010°14'0 0.0
2018-Feb-15 19:00N 59°44' E 010°14'0 0.0
2018-Feb-15 18:30N 59°44' E 010°14'0 0.0
2018-Feb-15 18:00N 59°44' E 010°14'0 0.0
2018-Feb-15 17:30N 59°44' E 010°14'0 0.0
2018-Feb-15 17:00N 59°44' E 010°14'0 0.0
2018-Feb-15 16:30N 59°44' E 010°14'0 0.0
2018-Feb-15 16:00N 59°44' E 010°14'0 0.0
2018-Feb-15 15:30N 59°44' E 010°14'0 0.0
2018-Feb-15 15:00N 59°44' E 010°14'0 0.0
2018-Feb-15 14:30N 59°44' E 010°14'0 0.0
2018-Feb-15 14:00N 59°44' E 010°14'0 0.0
2018-Feb-15 13:30N 59°44' E 010°14'0 0.0
2018-Feb-15 13:00N 59°44' E 010°14'0 0.0
2018-Feb-15 12:30N 59°44' E 010°14'0 0.0
2018-Feb-15 12:00N 59°44' E 010°14'0 0.0
2018-Feb-15 11:30N 59°44' E 010°14'0 0.0
2018-Feb-15 11:00N 59°44' E 010°14'0 0.0
2018-Feb-15 10:30N 59°44' E 010°14'0 0.0
2018-Feb-15 10:00N 59°44' E 010°14'0 0.0
2018-Feb-15 09:30N 59°44' E 010°14'0 0.0
2018-Feb-15 09:00N 59°44' E 010°14'0 0.0
2018-Feb-15 08:30N 59°44' E 010°14'0 0.0
2018-Feb-15 08:00N 59°44' E 010°14'0 0.0
2018-Feb-15 07:30N 59°44' E 010°14'0 0.0
2018-Feb-15 07:00N 59°44' E 010°14'0 0.0
2018-Feb-15 06:30N 59°44' E 010°14'0 0.0
2018-Feb-15 06:00N 59°44' E 010°14'0 0.0
2018-Feb-15 05:30N 59°44' E 010°14'0 0.0
2018-Feb-15 05:00N 59°44' E 010°14'0 0.0
2018-Feb-15 04:30N 59°44' E 010°14'0 0.0
2018-Feb-15 04:00N 59°44' E 010°14'0 0.1
2018-Feb-15 03:30N 59°44' E 010°14'2 4.5
2018-Feb-15 03:00N 59°43' E 010°18'612.0
2018-Feb-15 02:29N 59°38' E 010°25'5 9.7
2018-Feb-15 02:01N 59°33' E 010°24'816.1
2018-Feb-15 01:31N 59°26' E 010°33'917.8
2018-Feb-15 01:00N 59°18' E 010°37'917.2
2018-Feb-15 00:30N 59°09' E 010°40'612.7
2018-Feb-15 00:00N 59°04' E 010°34'612.3
2018-Feb-14 23:31N 58°57' E 010°34'715.0
2018-Feb-14 23:01N 58°51' E 010°26'816.4
2018-Feb-14 22:31N 58°44' E 010°18'23316.4
2018-Feb-14 08:22N 55°22' E 006°45'616.0
2018-Feb-14 08:01N 55°17' E 006°43'815.8
2018-Feb-14 07:31N 55°09' E 006°44'815.8
2018-Feb-14 07:00N 55°01' E 006°46'815.5
2018-Feb-14 06:30N 54°54' E 006°52'815.6
2018-Feb-14 06:01N 54°47' E 006°58'6515.6
2018-Feb-14 01:50N 53°52' E 007°57'617.7
2018-Feb-14 01:30N 53°50' E 008°06'918.3
2018-Feb-14 01:00N 53°43' E 008°17'816.6
2018-Feb-14 00:30N 53°38' E 008°27'510.4
2018-Feb-14 00:00N 53°34' E 008°33'1 1.1
2018-Feb-13 23:31N 53°34' E 008°33'0 0.5
2018-Feb-13 23:00N 53°34' E 008°34'0 0.0
2018-Feb-13 22:30N 53°34' E 008°34'0 0.0
2018-Feb-13 22:00N 53°34' E 008°34'0 0.0
2018-Feb-13 21:30N 53°34' E 008°34'0 0.0
2018-Feb-13 21:00N 53°34' E 008°34'0 0.0
2018-Feb-13 20:30N 53°34' E 008°34'0 0.0
2018-Feb-13 20:00N 53°34' E 008°34'0 0.0
2018-Feb-13 19:30N 53°34' E 008°34'0 0.0
2018-Feb-13 19:00N 53°34' E 008°34'0 0.0
2018-Feb-13 18:30N 53°34' E 008°34'0 0.0
2018-Feb-13 18:00N 53°34' E 008°34'0 0.0
2018-Feb-13 17:30N 53°34' E 008°34'0 0.0
2018-Feb-13 17:00N 53°34' E 008°34'0 0.0
2018-Feb-13 16:30N 53°34' E 008°34'0 0.0
2018-Feb-13 16:00N 53°34' E 008°34'0 0.0
2018-Feb-13 15:30N 53°34' E 008°34'0 0.0
2018-Feb-13 15:00N 53°34' E 008°34'0 0.0
2018-Feb-13 14:27N 53°34' E 008°34'0 0.0
2018-Feb-13 14:00N 53°34' E 008°34'0 0.0
2018-Feb-13 13:30N 53°34' E 008°34'0 0.0
2018-Feb-13 13:00N 53°34' E 008°34'0 0.0
2018-Feb-13 12:30N 53°34' E 008°34'0 0.0
2018-Feb-13 11:59N 53°34' E 008°34'0 0.0
2018-Feb-13 11:26N 53°34' E 008°34'0 0.0
2018-Feb-13 10:59N 53°34' E 008°34'0 0.0
2018-Feb-13 10:29N 53°34' E 008°34'0 0.0
2018-Feb-13 09:59N 53°34' E 008°34'0 0.0
2018-Feb-13 09:29N 53°34' E 008°34'0 0.0
2018-Feb-13 08:59N 53°34' E 008°34'0 0.0
2018-Feb-13 08:29N 53°34' E 008°34'0 0.0
2018-Feb-13 07:59N 53°34' E 008°34'0 0.0
2018-Feb-13 07:29N 53°34' E 008°34'0 0.0
2018-Feb-13 06:59N 53°34' E 008°34'0 0.0
2018-Feb-13 06:29N 53°34' E 008°34'0 0.0
2018-Feb-13 05:59N 53°34' E 008°34'0 0.0
2018-Feb-13 05:29N 53°34' E 008°34'0 0.0
2018-Feb-13 04:59N 53°34' E 008°34'0 0.0
2018-Feb-13 04:29N 53°34' E 008°34'0 0.0
2018-Feb-13 03:59N 53°34' E 008°34'0 0.6
2018-Feb-13 03:30N 53°34' E 008°33'0 0.4
2018-Feb-13 03:00N 53°34' E 008°33'1 1.7
2018-Feb-13 02:30N 53°35' E 008°32'510.1
2018-Feb-13 02:00N 53°38' E 008°26'713.0
2018-Feb-13 01:30N 53°43' E 008°18'713.6
2018-Feb-13 01:00N 53°47' E 008°09'9315.3
2018-Feb-12 18:54N 53°36' E 005°32'716.9
2018-Feb-12 18:30N 53°34' E 005°22'816.9
2018-Feb-12 18:00N 53°30' E 005°08'816.9
2018-Feb-12 17:30N 53°28' E 004°55'3015.8
2018-Feb-12 15:36N 53°03' E 004°26'116.6
2018-Feb-12 15:31N 53°02' E 004°25'816.8
2018-Feb-12 15:01N 52°55' E 004°18'9016.4
2018-Feb-12 09:32N 51°47' E 002°41'315.2
2018-Feb-12 09:20N 51°44' E 002°41'614.4
2018-Feb-12 08:56N 51°38' E 002°43'614.8
2018-Feb-12 08:30N 51°32' E 002°44'714.4
2018-Feb-12 08:00N 51°25' E 002°44'611.1
2018-Feb-12 07:31N 51°22' E 002°52'815.1
2018-Feb-12 07:00N 51°22' E 003°04'611.2
2018-Feb-12 06:30N 51°21' E 003°13'1 1.0
2018-Feb-12 06:00N 51°20' E 003°13'0 0.0
2018-Feb-12 05:30N 51°20' E 003°13'1 2.8
2018-Feb-12 05:00N 51°19' E 003°13'0 0.0
2018-Feb-12 04:30N 51°19' E 003°13'0 0.0
2018-Feb-12 03:58N 51°19' E 003°13'0 0.0
2018-Feb-12 03:28N 51°19' E 003°13'0 0.0
2018-Feb-12 02:58N 51°19' E 003°13'0 0.0
2018-Feb-12 02:28N 51°19' E 003°13'0 0.0
2018-Feb-12 01:58N 51°19' E 003°13'0 0.0
2018-Feb-12 01:28N 51°19' E 003°13'0 0.0
2018-Feb-12 00:55N 51°19' E 003°13'0 0.0
2018-Feb-12 00:25N 51°19' E 003°13'0 0.0
2018-Feb-11 23:58N 51°19' E 003°13'0 0.0
2018-Feb-11 23:28N 51°19' E 003°13'0 0.0
2018-Feb-11 22:58N 51°19' E 003°13'0 0.0
2018-Feb-11 22:28N 51°19' E 003°13'0 0.0
2018-Feb-11 21:58N 51°19' E 003°13'0 0.0
2018-Feb-11 21:28N 51°19' E 003°13'0 0.0
2018-Feb-11 20:58N 51°19' E 003°13'0 0.0
2018-Feb-11 20:28N 51°19' E 003°13'0 0.0
2018-Feb-11 19:58N 51°19' E 003°13'0 0.0
2018-Feb-11 19:28N 51°19' E 003°13'0 0.0
2018-Feb-11 18:58N 51°19' E 003°13'0 0.0
2018-Feb-11 18:28N 51°19' E 003°13'0 0.0
2018-Feb-11 17:58N 51°19' E 003°13'0 0.0
2018-Feb-11 17:28N 51°19' E 003°13'0 0.0
2018-Feb-11 16:58N 51°19' E 003°13'0 0.0
2018-Feb-11 16:25N 51°19' E 003°13'0 0.0
2018-Feb-11 15:58N 51°19' E 003°13'0 0.0
2018-Feb-11 15:28N 51°19' E 003°13'0 0.0
2018-Feb-11 14:58N 51°19' E 003°13'0 0.0
2018-Feb-11 14:28N 51°19' E 003°13'0 0.0
2018-Feb-11 13:58N 51°19' E 003°13'0 0.0
2018-Feb-11 13:28N 51°19' E 003°13'0 0.0
2018-Feb-11 12:58N 51°19' E 003°13'0 0.0
2018-Feb-11 12:28N 51°19' E 003°13'0 0.0
2018-Feb-11 11:58N 51°19' E 003°13'0 0.0
2018-Feb-11 11:30N 51°19' E 003°13'1 2.0
2018-Feb-11 11:00N 51°20' E 003°13'0 0.7
2018-Feb-11 10:30N 51°20' E 003°13'0 0.3
2018-Feb-11 10:00N 51°20' E 003°13'4 7.8
2018-Feb-11 09:30N 51°23' E 003°09'815.7
2018-Feb-11 09:00N 51°22' E 002°57'815.2
2018-Feb-11 08:31N 51°22' E 002°44'714.2
2018-Feb-11 08:00N 51°22' E 002°33'613.0
2018-Feb-11 07:30N 51°20' E 002°23'510.9
2018-Feb-11 07:00N 51°17' E 002°15'611.4
2018-Feb-11 06:30N 51°15' E 002°07'612.6
2018-Feb-11 06:01N 51°12' E 001°59'713.8
2018-Feb-11 05:30N 51°09' E 001°49'714.9
2018-Feb-11 05:00N 51°04' E 001°39'816.6
2018-Feb-11 04:30N 50°58' E 001°30'815.8
2018-Feb-11 04:00N 50°50' E 001°26'816.0
2018-Feb-11 03:30N 50°43' E 001°23'4615.9
2018-Feb-11 00:37N 50°21' E 000°20'216.1
2018-Feb-11 00:30N 50°20' E 000°17'815.9
2018-Feb-11 00:00N 50°18' E 000°05'815.5
2018-Feb-10 23:30N 50°16' W 000°07'3015.5
2018-Feb-10 21:33N 50°10' W 000°53'115.8
2018-Feb-10 21:30N 50°10' W 000°54'815.7
2018-Feb-10 21:00N 50°08' W 001°06'816.0
2018-Feb-10 20:31N 50°05' W 001°18'816.3
2018-Feb-10 20:01N 50°03' W 001°30'816.6
2018-Feb-10 19:30N 50°01' W 001°42'917.1
2018-Feb-10 19:01N 49°59' W 001°55'917.3
2018-Feb-10 18:30N 49°56' W 002°08'1317.5
2018-Feb-10 17:47N 49°53' W 002°27'617.5
2018-Feb-10 17:25N 49°51' W 002°37'717.4
2018-Feb-10 17:00N 49°49' W 002°48'917.2
2018-Feb-10 16:28N 49°46' W 003°01'817.3
2018-Feb-10 16:00N 49°42' W 003°12'10117.1
2018-Feb-10 10:03N 48°51' W 005°26'2516.2
2018-Feb-10 08:32N 48°31' W 005°49'  

Dump ship's entire track history